sensor_id;sensor_type;location;lat;lon;timestamp;P1;durP1;ratioP1;P2;durP2;ratioP2
63032;SDS011;49121;38.932;-9.018;2022-10-16T00:06:48;0.40;;;0.40;;
63032;SDS011;49121;38.932;-9.018;2022-10-16T00:08:49;1.33;;;0.65;;
63032;SDS011;49121;38.932;-9.018;2022-10-16T00:10:50;1.50;;;0.43;;
63032;SDS011;49121;38.932;-9.018;2022-10-16T00:15:14;1.45;;;0.70;;
63032;SDS011;49121;38.932;-9.018;2022-10-16T00:17:15;0.35;;;0.35;;
63032;SDS011;49121;38.932;-9.018;2022-10-16T00:21:54;2.92;;;0.70;;
63032;SDS011;49121;38.932;-9.018;2022-10-16T00:23:56;3.20;;;0.40;;
63032;SDS011;49121;38.932;-9.018;2022-10-16T00:26:20;0.80;;;0.43;;
63032;SDS011;49121;38.932;-9.018;2022-10-16T00:28:20;0.77;;;0.60;;
63032;SDS011;49121;38.932;-9.018;2022-10-16T00:30:21;0.50;;;0.50;;
63032;SDS011;49121;38.932;-9.018;2022-10-16T00:37:03;0.55;;;0.55;;
63032;SDS011;49121;38.932;-9.018;2022-10-16T00:39:04;2.33;;;0.50;;
63032;SDS011;49121;38.932;-9.018;2022-10-16T00:45:36;0.30;;;0.30;;
63032;SDS011;49121;38.932;-9.018;2022-10-16T00:47:38;1.23;;;0.40;;
63032;SDS011;49121;38.932;-9.018;2022-10-16T00:49:42;2.10;;;0.40;;
63032;SDS011;49121;38.932;-9.018;2022-10-16T00:52:05;0.85;;;0.40;;
63032;SDS011;49121;38.932;-9.018;2022-10-16T00:54:08;0.50;;;0.40;;
63032;SDS011;49121;38.932;-9.018;2022-10-16T00:56:11;1.55;;;0.55;;
63032;SDS011;49121;38.932;-9.018;2022-10-16T00:58:12;0.98;;;0.40;;
63032;SDS011;49121;38.932;-9.018;2022-10-16T01:00:15;4.70;;;0.50;;
63032;SDS011;49121;38.932;-9.018;2022-10-16T01:04:50;0.32;;;0.30;;
63032;SDS011;49121;38.932;-9.018;2022-10-16T01:17:43;0.43;;;0.30;;
63032;SDS011;49121;38.932;-9.018;2022-10-16T01:22:14;0.88;;;0.30;;
63032;SDS011;49121;38.932;-9.018;2022-10-16T01:24:19;0.75;;;0.50;;
63032;SDS011;49121;38.932;-9.018;2022-10-16T01:29:23;1.65;;;0.50;;
63032;SDS011;49121;38.932;-9.018;2022-10-16T01:31:31;1.05;;;0.30;;
63032;SDS011;49121;38.932;-9.018;2022-10-16T01:33:35;1.38;;;0.40;;
63032;SDS011;49121;38.932;-9.018;2022-10-16T01:35:42;2.15;;;0.32;;
63032;SDS011;49121;38.932;-9.018;2022-10-16T01:40:13;0.40;;;0.35;;
63032;SDS011;49121;38.932;-9.018;2022-10-16T01:42:19;0.30;;;0.30;;
63032;SDS011;49121;38.932;-9.018;2022-10-16T01:44:31;0.65;;;0.50;;
63032;SDS011;49121;38.932;-9.018;2022-10-16T01:46:37;1.95;;;0.40;;
63032;SDS011;49121;38.932;-9.018;2022-10-16T01:48:41;0.50;;;0.40;;
63032;SDS011;49121;38.932;-9.018;2022-10-16T01:51:05;0.43;;;0.40;;
63032;SDS011;49121;38.932;-9.018;2022-10-16T01:53:08;0.98;;;0.70;;
63032;SDS011;49121;38.932;-9.018;2022-10-16T01:55:13;0.88;;;0.40;;
63032;SDS011;49121;38.932;-9.018;2022-10-16T01:59:58;2.10;;;0.55;;
63032;SDS011;49121;38.932;-9.018;2022-10-16T02:02:12;0.95;;;0.60;;
63032;SDS011;49121;38.932;-9.018;2022-10-16T02:06:27;1.48;;;0.50;;
63032;SDS011;49121;38.932;-9.018;2022-10-16T02:10:54;0.77;;;0.57;;
63032;SDS011;49121;38.932;-9.018;2022-10-16T02:15:42;1.35;;;0.73;;
63032;SDS011;49121;38.932;-9.018;2022-10-16T02:18:02;0.77;;;0.70;;
63032;SDS011;49121;38.932;-9.018;2022-10-16T02:20:04;0.90;;;0.80;;
63032;SDS011;49121;38.932;-9.018;2022-10-16T02:22:07;2.05;;;0.80;;
63032;SDS011;49121;38.932;-9.018;2022-10-16T02:26:40;4.18;;;2.22;;
63032;SDS011;49121;38.932;-9.018;2022-10-16T02:31:58;2.13;;;0.80;;
63032;SDS011;49121;38.932;-9.018;2022-10-16T02:34:20;1.70;;;0.80;;
63032;SDS011;49121;38.932;-9.018;2022-10-16T02:36:24;2.78;;;0.90;;
63032;SDS011;49121;38.932;-9.018;2022-10-16T02:38:26;5.20;;;1.40;;
63032;SDS011;49121;38.932;-9.018;2022-10-16T02:40:31;1.45;;;1.08;;
63032;SDS011;49121;38.932;-9.018;2022-10-16T02:42:36;2.28;;;1.02;;
63032;SDS011;49121;38.932;-9.018;2022-10-16T02:44:38;2.70;;;1.42;;
63032;SDS011;49121;38.932;-9.018;2022-10-16T02:46:39;1.10;;;1.00;;
63032;SDS011;49121;38.932;-9.018;2022-10-16T02:48:42;3.85;;;1.30;;
63032;SDS011;49121;38.932;-9.018;2022-10-16T02:50:46;3.47;;;1.42;;
63032;SDS011;49121;38.932;-9.018;2022-10-16T02:52:47;2.72;;;1.40;;
63032;SDS011;49121;38.932;-9.018;2022-10-16T02:54:48;2.80;;;1.20;;
63032;SDS011;49121;38.932;-9.018;2022-10-16T02:56:49;2.40;;;1.20;;
63032;SDS011;49121;38.932;-9.018;2022-10-16T02:58:49;1.52;;;1.13;;
63032;SDS011;49121;38.932;-9.018;2022-10-16T03:00:50;5.88;;;1.50;;
63032;SDS011;49121;38.932;-9.018;2022-10-16T03:02:51;4.18;;;1.00;;
63032;SDS011;49121;38.932;-9.018;2022-10-16T03:04:51;3.47;;;1.60;;
63032;SDS011;49121;38.932;-9.018;2022-10-16T03:06:52;1.70;;;1.10;;
63032;SDS011;49121;38.932;-9.018;2022-10-16T03:08:53;4.60;;;1.20;;
63032;SDS011;49121;38.932;-9.018;2022-10-16T03:10:53;2.95;;;1.23;;
63032;SDS011;49121;38.932;-9.018;2022-10-16T03:13:12;1.58;;;1.10;;
63032;SDS011;49121;38.932;-9.018;2022-10-16T03:15:16;2.30;;;0.93;;
63032;SDS011;49121;38.932;-9.018;2022-10-16T03:17:16;1.40;;;0.85;;
63032;SDS011;49121;38.932;-9.018;2022-10-16T03:19:17;3.95;;;1.30;;
63032;SDS011;49121;38.932;-9.018;2022-10-16T03:21:18;3.22;;;1.05;;
63032;SDS011;49121;38.932;-9.018;2022-10-16T03:23:22;4.60;;;0.88;;
63032;SDS011;49121;38.932;-9.018;2022-10-16T03:25:22;1.38;;;0.90;;
63032;SDS011;49121;38.932;-9.018;2022-10-16T03:27:23;2.20;;;1.13;;
63032;SDS011;49121;38.932;-9.018;2022-10-16T03:31:43;2.75;;;0.88;;
63032;SDS011;49121;38.932;-9.018;2022-10-16T03:34:02;0.88;;;0.70;;
63032;SDS011;49121;38.932;-9.018;2022-10-16T03:36:03;1.15;;;0.88;;
63032;SDS011;49121;38.932;-9.018;2022-10-16T03:38:04;1.83;;;0.88;;
63032;SDS011;49121;38.932;-9.018;2022-10-16T03:40:04;2.30;;;0.80;;
63032;SDS011;49121;38.932;-9.018;2022-10-16T03:42:06;1.15;;;0.60;;
63032;SDS011;49121;38.932;-9.018;2022-10-16T03:44:06;0.65;;;0.57;;
63032;SDS011;49121;38.932;-9.018;2022-10-16T03:46:07;2.15;;;0.80;;
63032;SDS011;49121;38.932;-9.018;2022-10-16T03:48:08;2.42;;;0.80;;
63032;SDS011;49121;38.932;-9.018;2022-10-16T03:50:10;2.20;;;0.95;;
63032;SDS011;49121;38.932;-9.018;2022-10-16T03:52:11;1.08;;;0.77;;
63032;SDS011;49121;38.932;-9.018;2022-10-16T03:56:55;0.80;;;0.80;;
63032;SDS011;49121;38.932;-9.018;2022-10-16T03:58:56;0.82;;;0.75;;
63032;SDS011;49121;38.932;-9.018;2022-10-16T04:01:00;1.35;;;0.85;;
63032;SDS011;49121;38.932;-9.018;2022-10-16T04:08:20;0.75;;;0.70;;
63032;SDS011;49121;38.932;-9.018;2022-10-16T04:10:41;1.08;;;0.82;;
63032;SDS011;49121;38.932;-9.018;2022-10-16T04:12:43;0.57;;;0.57;;
63032;SDS011;49121;38.932;-9.018;2022-10-16T04:14:44;1.48;;;0.75;;
63032;SDS011;49121;38.932;-9.018;2022-10-16T04:16:44;1.85;;;0.70;;
63032;SDS011;49121;38.932;-9.018;2022-10-16T04:21:45;1.67;;;0.50;;
63032;SDS011;49121;38.932;-9.018;2022-10-16T04:24:04;0.70;;;0.65;;
63032;SDS011;49121;38.932;-9.018;2022-10-16T04:28:28;1.17;;;0.50;;
63032;SDS011;49121;38.932;-9.018;2022-10-16T04:30:29;1.00;;;0.60;;
63032;SDS011;49121;38.932;-9.018;2022-10-16T04:32:30;1.27;;;0.60;;
63032;SDS011;49121;38.932;-9.018;2022-10-16T04:37:28;1.77;;;1.33;;
63032;SDS011;49121;38.932;-9.018;2022-10-16T04:39:28;2.38;;;0.50;;
63032;SDS011;49121;38.932;-9.018;2022-10-16T04:41:29;1.98;;;0.50;;
63032;SDS011;49121;38.932;-9.018;2022-10-16T04:43:30;2.25;;;0.65;;
63032;SDS011;49121;38.932;-9.018;2022-10-16T04:45:43;1.65;;;0.50;;
63032;SDS011;49121;38.932;-9.018;2022-10-16T04:47:44;1.80;;;0.40;;
63032;SDS011;49121;38.932;-9.018;2022-10-16T04:49:44;5.10;;;0.68;;
63032;SDS011;49121;38.932;-9.018;2022-10-16T04:51:45;0.63;;;0.40;;
63032;SDS011;49121;38.932;-9.018;2022-10-16T04:53:46;1.40;;;0.40;;
63032;SDS011;49121;38.932;-9.018;2022-10-16T05:01:06;0.40;;;0.40;;
63032;SDS011;49121;38.932;-9.018;2022-10-16T05:03:07;2.00;;;0.40;;
63032;SDS011;49121;38.932;-9.018;2022-10-16T05:05:08;1.30;;;0.60;;
63032;SDS011;49121;38.932;-9.018;2022-10-16T05:07:09;0.55;;;0.50;;
63032;SDS011;49121;38.932;-9.018;2022-10-16T05:09:10;0.47;;;0.47;;
63032;SDS011;49121;38.932;-9.018;2022-10-16T05:11:11;2.25;;;0.50;;
63032;SDS011;49121;38.932;-9.018;2022-10-16T05:13:11;0.30;;;0.30;;
63032;SDS011;49121;38.932;-9.018;2022-10-16T05:15:27;8.50;;;0.80;;
63032;SDS011;49121;38.932;-9.018;2022-10-16T05:17:28;2.80;;;0.60;;
63032;SDS011;49121;38.932;-9.018;2022-10-16T05:19:29;3.70;;;0.50;;
63032;SDS011;49121;38.932;-9.018;2022-10-16T05:21:33;0.95;;;0.60;;
63032;SDS011;49121;38.932;-9.018;2022-10-16T05:23:38;1.17;;;0.40;;
63032;SDS011;49121;38.932;-9.018;2022-10-16T05:25:57;0.47;;;0.45;;
63032;SDS011;49121;38.932;-9.018;2022-10-16T05:28:18;0.50;;;0.50;;
63032;SDS011;49121;38.932;-9.018;2022-10-16T05:30:37;3.88;;;0.70;;
63032;SDS011;49121;38.932;-9.018;2022-10-16T05:37:35;0.45;;;0.45;;
63032;SDS011;49121;38.932;-9.018;2022-10-16T05:39:36;1.95;;;0.80;;
63032;SDS011;49121;38.932;-9.018;2022-10-16T05:41:37;1.67;;;0.88;;
63032;SDS011;49121;38.932;-9.018;2022-10-16T05:46:16;2.05;;;1.10;;
63032;SDS011;49121;38.932;-9.018;2022-10-16T05:48:17;1.30;;;0.70;;
63032;SDS011;49121;38.932;-9.018;2022-10-16T05:50:17;3.40;;;0.55;;
63032;SDS011;49121;38.932;-9.018;2022-10-16T05:52:18;1.00;;;0.57;;
63032;SDS011;49121;38.932;-9.018;2022-10-16T05:54:19;3.78;;;0.93;;
63032;SDS011;49121;38.932;-9.018;2022-10-16T05:56:38;2.05;;;0.60;;
63032;SDS011;49121;38.932;-9.018;2022-10-16T05:58:39;2.05;;;0.70;;
63032;SDS011;49121;38.932;-9.018;2022-10-16T06:00:41;0.90;;;0.60;;
63032;SDS011;49121;38.932;-9.018;2022-10-16T06:03:00;0.93;;;0.57;;
63032;SDS011;49121;38.932;-9.018;2022-10-16T06:05:25;1.30;;;0.80;;
63032;SDS011;49121;38.932;-9.018;2022-10-16T06:07:26;4.10;;;0.65;;
63032;SDS011;49121;38.932;-9.018;2022-10-16T06:09:49;2.53;;;0.88;;
63032;SDS011;49121;38.932;-9.018;2022-10-16T06:11:51;2.67;;;0.93;;
63032;SDS011;49121;38.932;-9.018;2022-10-16T06:13:52;2.05;;;1.10;;
63032;SDS011;49121;38.932;-9.018;2022-10-16T06:15:56;1.50;;;1.10;;
63032;SDS011;49121;38.932;-9.018;2022-10-16T06:17:58;2.72;;;0.85;;
63032;SDS011;49121;38.932;-9.018;2022-10-16T06:19:59;4.35;;;1.30;;
63032;SDS011;49121;38.932;-9.018;2022-10-16T06:22:07;6.80;;;1.40;;
63032;SDS011;49121;38.932;-9.018;2022-10-16T06:24:11;2.65;;;1.27;;
63032;SDS011;49121;38.932;-9.018;2022-10-16T06:26:12;3.03;;;1.20;;
63032;SDS011;49121;38.932;-9.018;2022-10-16T06:28:14;3.25;;;1.20;;
63032;SDS011;49121;38.932;-9.018;2022-10-16T06:30:33;2.95;;;1.33;;
63032;SDS011;49121;38.932;-9.018;2022-10-16T06:32:34;3.88;;;1.40;;
63032;SDS011;49121;38.932;-9.018;2022-10-16T06:34:35;3.85;;;1.52;;
63032;SDS011;49121;38.932;-9.018;2022-10-16T06:36:35;4.18;;;1.60;;
63032;SDS011;49121;38.932;-9.018;2022-10-16T06:38:40;2.25;;;1.10;;
63032;SDS011;49121;38.932;-9.018;2022-10-16T06:46:16;8.55;;;1.40;;
63032;SDS011;49121;38.932;-9.018;2022-10-16T06:53:59;6.10;;;1.02;;
63032;SDS011;49121;38.932;-9.018;2022-10-16T06:56:19;4.40;;;2.17;;
63032;SDS011;49121;38.932;-9.018;2022-10-16T06:58:50;2.90;;;1.08;;
63032;SDS011;49121;38.932;-9.018;2022-10-16T07:00:54;1.58;;;1.20;;
63032;SDS011;49121;38.932;-9.018;2022-10-16T07:05:38;3.38;;;1.25;;
63032;SDS011;49121;38.932;-9.018;2022-10-16T07:07:42;5.28;;;1.27;;
63032;SDS011;49121;38.932;-9.018;2022-10-16T07:09:42;3.88;;;1.20;;
63032;SDS011;49121;38.932;-9.018;2022-10-16T07:11:43;3.50;;;1.30;;
63032;SDS011;49121;38.932;-9.018;2022-10-16T07:13:45;7.60;;;1.60;;
63032;SDS011;49121;38.932;-9.018;2022-10-16T07:15:49;3.22;;;1.38;;
63032;SDS011;49121;38.932;-9.018;2022-10-16T07:24:54;2.88;;;1.52;;
63032;SDS011;49121;38.932;-9.018;2022-10-16T07:27:13;5.10;;;1.50;;
63032;SDS011;49121;38.932;-9.018;2022-10-16T07:29:15;2.75;;;1.50;;
63032;SDS011;49121;38.932;-9.018;2022-10-16T07:31:18;8.18;;;1.63;;
63032;SDS011;49121;38.932;-9.018;2022-10-16T07:33:20;2.83;;;1.60;;
63032;SDS011;49121;38.932;-9.018;2022-10-16T07:35:21;5.38;;;1.95;;
63032;SDS011;49121;38.932;-9.018;2022-10-16T07:37:22;5.35;;;2.22;;
63032;SDS011;49121;38.932;-9.018;2022-10-16T07:39:31;3.33;;;2.55;;
63032;SDS011;49121;38.932;-9.018;2022-10-16T07:41:32;5.15;;;2.13;;
63032;SDS011;49121;38.932;-9.018;2022-10-16T07:43:36;5.65;;;2.40;;
63032;SDS011;49121;38.932;-9.018;2022-10-16T07:48:34;4.00;;;1.90;;
63032;SDS011;49121;38.932;-9.018;2022-10-16T07:50:47;5.47;;;2.10;;
63032;SDS011;49121;38.932;-9.018;2022-10-16T07:52:47;3.38;;;1.58;;
63032;SDS011;49121;38.932;-9.018;2022-10-16T07:54:48;5.78;;;1.27;;
63032;SDS011;49121;38.932;-9.018;2022-10-16T07:56:49;3.00;;;1.30;;
63032;SDS011;49121;38.932;-9.018;2022-10-16T07:58:49;5.30;;;0.95;;
63032;SDS011;49121;38.932;-9.018;2022-10-16T08:00:50;2.35;;;1.25;;
63032;SDS011;49121;38.932;-9.018;2022-10-16T08:02:51;3.38;;;1.52;;
63032;SDS011;49121;38.932;-9.018;2022-10-16T08:04:52;5.93;;;0.98;;
63032;SDS011;49121;38.932;-9.018;2022-10-16T08:09:49;3.60;;;1.00;;
63032;SDS011;49121;38.932;-9.018;2022-10-16T08:11:51;2.92;;;1.10;;
63032;SDS011;49121;38.932;-9.018;2022-10-16T08:13:52;2.45;;;1.00;;
63032;SDS011;49121;38.932;-9.018;2022-10-16T08:21:13;4.47;;;1.10;;
63032;SDS011;49121;38.932;-9.018;2022-10-16T08:23:16;2.42;;;1.00;;
63032;SDS011;49121;38.932;-9.018;2022-10-16T08:33:30;8.10;;;2.60;;
63032;SDS011;49121;38.932;-9.018;2022-10-16T08:35:30;18.02;;;6.90;;
63032;SDS011;49121;38.932;-9.018;2022-10-16T08:37:38;21.15;;;8.23;;
63032;SDS011;49121;38.932;-9.018;2022-10-16T08:39:58;6.55;;;2.55;;
63032;SDS011;49121;38.932;-9.018;2022-10-16T08:48:49;5.53;;;1.17;;
63032;SDS011;49121;38.932;-9.018;2022-10-16T08:50:51;5.30;;;1.60;;
63032;SDS011;49121;38.932;-9.018;2022-10-16T08:52:54;4.57;;;1.63;;
63032;SDS011;49121;38.932;-9.018;2022-10-16T08:54:55;8.55;;;2.42;;
63032;SDS011;49121;38.932;-9.018;2022-10-16T08:57:19;5.55;;;1.45;;
63032;SDS011;49121;38.932;-9.018;2022-10-16T08:59:35;8.93;;;1.90;;
63032;SDS011;49121;38.932;-9.018;2022-10-16T09:01:39;6.75;;;1.65;;
63032;SDS011;49121;38.932;-9.018;2022-10-16T09:11:34;5.53;;;1.02;;
63032;SDS011;49121;38.932;-9.018;2022-10-16T09:14:34;9.32;;;1.05;;
63032;SDS011;49121;38.932;-9.018;2022-10-16T09:16:38;4.38;;;1.00;;
63032;SDS011;49121;38.932;-9.018;2022-10-16T09:21:29;1.15;;;0.80;;
63032;SDS011;49121;38.932;-9.018;2022-10-16T09:23:33;2.83;;;1.02;;
63032;SDS011;49121;38.932;-9.018;2022-10-16T09:25:35;2.22;;;1.13;;
63032;SDS011;49121;38.932;-9.018;2022-10-16T09:27:37;3.15;;;0.93;;
63032;SDS011;49121;38.932;-9.018;2022-10-16T09:29:38;2.55;;;0.82;;
63032;SDS011;49121;38.932;-9.018;2022-10-16T09:31:39;4.03;;;1.20;;
63032;SDS011;49121;38.932;-9.018;2022-10-16T09:33:40;6.47;;;0.90;;
63032;SDS011;49121;38.932;-9.018;2022-10-16T09:35:59;5.93;;;1.48;;
63032;SDS011;49121;38.932;-9.018;2022-10-16T09:38:03;1.10;;;0.60;;
63032;SDS011;49121;38.932;-9.018;2022-10-16T09:40:04;4.35;;;1.00;;
63032;SDS011;49121;38.932;-9.018;2022-10-16T09:42:05;1.42;;;0.82;;
63032;SDS011;49121;38.932;-9.018;2022-10-16T09:44:28;1.65;;;1.27;;
63032;SDS011;49121;38.932;-9.018;2022-10-16T09:49:23;3.72;;;1.10;;
63032;SDS011;49121;38.932;-9.018;2022-10-16T09:53:36;3.40;;;0.50;;
63032;SDS011;49121;38.932;-9.018;2022-10-16T09:56:05;0.55;;;0.50;;
63032;SDS011;49121;38.932;-9.018;2022-10-16T09:58:11;1.70;;;0.77;;
63032;SDS011;49121;38.932;-9.018;2022-10-16T10:00:15;1.17;;;0.50;;
63032;SDS011;49121;38.932;-9.018;2022-10-16T10:02:35;0.50;;;0.50;;
63032;SDS011;49121;38.932;-9.018;2022-10-16T10:07:30;1.30;;;0.80;;
63032;SDS011;49121;38.932;-9.018;2022-10-16T10:09:37;2.05;;;0.70;;
63032;SDS011;49121;38.932;-9.018;2022-10-16T10:11:59;2.55;;;0.90;;
63032;SDS011;49121;38.932;-9.018;2022-10-16T10:19:22;0.77;;;0.60;;
63032;SDS011;49121;38.932;-9.018;2022-10-16T10:21:23;1.00;;;0.80;;
63032;SDS011;49121;38.932;-9.018;2022-10-16T10:23:25;0.70;;;0.70;;
63032;SDS011;49121;38.932;-9.018;2022-10-16T10:39:28;2.83;;;1.27;;
63032;SDS011;49121;38.932;-9.018;2022-10-16T10:46:32;2.55;;;1.20;;
63032;SDS011;49121;38.932;-9.018;2022-10-16T10:51:22;0.70;;;0.52;;
63032;SDS011;49121;38.932;-9.018;2022-10-16T10:53:56;2.13;;;0.77;;
63032;SDS011;49121;38.932;-9.018;2022-10-16T11:02:18;2.28;;;1.20;;
63032;SDS011;49121;38.932;-9.018;2022-10-16T11:12:36;1.50;;;0.93;;
63032;SDS011;49121;38.932;-9.018;2022-10-16T11:14:51;1.20;;;0.70;;
63032;SDS011;49121;38.932;-9.018;2022-10-16T11:17:23;1.27;;;0.80;;
63032;SDS011;49121;38.932;-9.018;2022-10-16T11:19:44;2.67;;;0.80;;
63032;SDS011;49121;38.932;-9.018;2022-10-16T11:27:33;4.18;;;0.98;;
63032;SDS011;49121;38.932;-9.018;2022-10-16T11:29:35;1.10;;;0.93;;
63032;SDS011;49121;38.932;-9.018;2022-10-16T11:32:04;2.03;;;0.85;;
63032;SDS011;49121;38.932;-9.018;2022-10-16T11:36:39;1.35;;;0.95;;
63032;SDS011;49121;38.932;-9.018;2022-10-16T11:44:09;1.35;;;1.08;;
63032;SDS011;49121;38.932;-9.018;2022-10-16T11:46:33;3.65;;;1.15;;
63032;SDS011;49121;38.932;-9.018;2022-10-16T11:48:39;1.50;;;1.17;;
63032;SDS011;49121;38.932;-9.018;2022-10-16T11:55:27;1.42;;;0.70;;
63032;SDS011;49121;38.932;-9.018;2022-10-16T11:57:42;0.90;;;0.60;;
63032;SDS011;49121;38.932;-9.018;2022-10-16T11:59:57;0.65;;;0.40;;
63032;SDS011;49121;38.932;-9.018;2022-10-16T12:04:48;0.90;;;0.50;;
63032;SDS011;49121;38.932;-9.018;2022-10-16T12:07:06;4.35;;;2.65;;
63032;SDS011;49121;38.932;-9.018;2022-10-16T12:09:26;0.50;;;0.50;;
63032;SDS011;49121;38.932;-9.018;2022-10-16T12:13:38;1.00;;;0.60;;
63032;SDS011;49121;38.932;-9.018;2022-10-16T12:15:40;2.83;;;0.50;;
63032;SDS011;49121;38.932;-9.018;2022-10-16T12:17:41;1.30;;;0.45;;
63032;SDS011;49121;38.932;-9.018;2022-10-16T12:19:42;0.55;;;0.50;;
63032;SDS011;49121;38.932;-9.018;2022-10-16T12:21:45;1.02;;;0.50;;
63032;SDS011;49121;38.932;-9.018;2022-10-16T12:23:50;0.60;;;0.60;;
63032;SDS011;49121;38.932;-9.018;2022-10-16T12:25:56;0.95;;;0.50;;
63032;SDS011;49121;38.932;-9.018;2022-10-16T12:30:34;1.67;;;0.45;;
63032;SDS011;49121;38.932;-9.018;2022-10-16T12:32:37;0.57;;;0.40;;
63032;SDS011;49121;38.932;-9.018;2022-10-16T12:34:43;2.92;;;0.73;;
63032;SDS011;49121;38.932;-9.018;2022-10-16T12:36:44;1.30;;;0.68;;
63032;SDS011;49121;38.932;-9.018;2022-10-16T12:38:46;1.95;;;0.80;;
63032;SDS011;49121;38.932;-9.018;2022-10-16T12:45:48;3.88;;;0.70;;
63032;SDS011;49121;38.932;-9.018;2022-10-16T12:48:00;2.60;;;0.73;;
63032;SDS011;49121;38.932;-9.018;2022-10-16T12:50:03;0.90;;;0.60;;
63032;SDS011;49121;38.932;-9.018;2022-10-16T12:54:37;1.10;;;0.57;;
63032;SDS011;49121;38.932;-9.018;2022-10-16T13:19:13;0.90;;;0.50;;
63032;SDS011;49121;38.932;-9.018;2022-10-16T13:29:20;1.15;;;0.77;;
63032;SDS011;49121;38.932;-9.018;2022-10-16T13:33:47;1.70;;;0.93;;
63032;SDS011;49121;38.932;-9.018;2022-10-16T13:35:53;3.38;;;0.90;;
63032;SDS011;49121;38.932;-9.018;2022-10-16T13:38:30;1.40;;;0.90;;
63032;SDS011;49121;38.932;-9.018;2022-10-16T13:40:25;1.30;;;0.90;;
63032;SDS011;49121;38.932;-9.018;2022-10-16T13:42:26;3.03;;;1.02;;
63032;SDS011;49121;38.932;-9.018;2022-10-16T13:45:17;1.85;;;0.95;;
63032;SDS011;49121;38.932;-9.018;2022-10-16T13:53:14;2.72;;;0.90;;
63032;SDS011;49121;38.932;-9.018;2022-10-16T13:55:33;1.63;;;1.00;;
63032;SDS011;49121;38.932;-9.018;2022-10-16T13:57:37;1.83;;;1.13;;
63032;SDS011;49121;38.932;-9.018;2022-10-16T13:59:37;2.63;;;0.98;;
63032;SDS011;49121;38.932;-9.018;2022-10-16T14:01:42;1.95;;;1.08;;
63032;SDS011;49121;38.932;-9.018;2022-10-16T14:03:44;2.03;;;1.10;;
63032;SDS011;49121;38.932;-9.018;2022-10-16T14:06:04;2.80;;;1.08;;
63032;SDS011;49121;38.932;-9.018;2022-10-16T14:08:12;2.45;;;1.00;;
63032;SDS011;49121;38.932;-9.018;2022-10-16T14:10:20;1.98;;;0.98;;
63032;SDS011;49121;38.932;-9.018;2022-10-16T14:12:31;3.22;;;1.15;;
63032;SDS011;49121;38.932;-9.018;2022-10-16T14:14:52;2.85;;;1.00;;
63032;SDS011;49121;38.932;-9.018;2022-10-16T14:16:54;1.77;;;0.90;;
63032;SDS011;49121;38.932;-9.018;2022-10-16T14:19:22;1.60;;;0.93;;
63032;SDS011;49121;38.932;-9.018;2022-10-16T14:21:25;2.60;;;1.15;;
63032;SDS011;49121;38.932;-9.018;2022-10-16T14:28:26;1.58;;;0.90;;
63032;SDS011;49121;38.932;-9.018;2022-10-16T14:30:29;4.63;;;1.23;;
63032;SDS011;49121;38.932;-9.018;2022-10-16T14:32:30;4.13;;;1.23;;
63032;SDS011;49121;38.932;-9.018;2022-10-16T14:37:25;1.70;;;1.20;;
63032;SDS011;49121;38.932;-9.018;2022-10-16T14:39:29;3.75;;;1.10;;
63032;SDS011;49121;38.932;-9.018;2022-10-16T14:41:31;5.07;;;1.00;;
63032;SDS011;49121;38.932;-9.018;2022-10-16T14:43:34;1.73;;;0.95;;
63032;SDS011;49121;38.932;-9.018;2022-10-16T14:45:56;2.35;;;1.10;;
63032;SDS011;49121;38.932;-9.018;2022-10-16T14:51:16;2.20;;;1.25;;
63032;SDS011;49121;38.932;-9.018;2022-10-16T14:53:17;4.75;;;1.55;;
63032;SDS011;49121;38.932;-9.018;2022-10-16T14:58:19;1.90;;;1.15;;
63032;SDS011;49121;38.932;-9.018;2022-10-16T15:00:22;12.15;;;1.50;;
63032;SDS011;49121;38.932;-9.018;2022-10-16T15:02:34;3.33;;;1.40;;
63032;SDS011;49121;38.932;-9.018;2022-10-16T15:04:36;3.45;;;1.02;;
63032;SDS011;49121;38.932;-9.018;2022-10-16T15:06:37;2.22;;;1.23;;
63032;SDS011;49121;38.932;-9.018;2022-10-16T15:08:38;3.45;;;1.30;;
63032;SDS011;49121;38.932;-9.018;2022-10-16T15:13:17;3.67;;;1.35;;
63032;SDS011;49121;38.932;-9.018;2022-10-16T15:15:37;2.55;;;1.25;;
63032;SDS011;49121;38.932;-9.018;2022-10-16T15:17:45;1.58;;;1.15;;
63032;SDS011;49121;38.932;-9.018;2022-10-16T15:19:46;5.03;;;1.40;;
63032;SDS011;49121;38.932;-9.018;2022-10-16T15:21:46;4.60;;;1.33;;
63032;SDS011;49121;38.932;-9.018;2022-10-16T15:23:48;1.45;;;1.17;;
63032;SDS011;49121;38.932;-9.018;2022-10-16T15:25:51;2.70;;;1.40;;
63032;SDS011;49121;38.932;-9.018;2022-10-16T15:27:54;1.85;;;1.30;;
63032;SDS011;49121;38.932;-9.018;2022-10-16T15:29:55;2.45;;;1.00;;
63032;SDS011;49121;38.932;-9.018;2022-10-16T15:31:56;3.67;;;1.30;;
63032;SDS011;49121;38.932;-9.018;2022-10-16T15:33:56;1.95;;;1.40;;
63032;SDS011;49121;38.932;-9.018;2022-10-16T15:36:04;1.90;;;1.10;;
63032;SDS011;49121;38.932;-9.018;2022-10-16T15:38:13;2.15;;;1.20;;
63032;SDS011;49121;38.932;-9.018;2022-10-16T15:40:16;3.05;;;1.27;;
63032;SDS011;49121;38.932;-9.018;2022-10-16T15:42:17;4.47;;;1.30;;
63032;SDS011;49121;38.932;-9.018;2022-10-16T15:44:18;1.95;;;1.08;;
63032;SDS011;49121;38.932;-9.018;2022-10-16T15:46:20;2.72;;;1.23;;
63032;SDS011;49121;38.932;-9.018;2022-10-16T15:48:22;1.48;;;0.93;;
63032;SDS011;49121;38.932;-9.018;2022-10-16T15:50:23;1.67;;;1.00;;
63032;SDS011;49121;38.932;-9.018;2022-10-16T15:52:25;3.40;;;1.00;;
63032;SDS011;49121;38.932;-9.018;2022-10-16T15:54:26;1.83;;;1.10;;
63032;SDS011;49121;38.932;-9.018;2022-10-16T15:56:27;3.25;;;1.10;;
63032;SDS011;49121;38.932;-9.018;2022-10-16T15:58:46;1.55;;;1.10;;
63032;SDS011;49121;38.932;-9.018;2022-10-16T16:00:54;4.18;;;1.40;;
63032;SDS011;49121;38.932;-9.018;2022-10-16T16:03:01;1.38;;;0.90;;
63032;SDS011;49121;38.932;-9.018;2022-10-16T16:05:21;2.20;;;1.10;;
63032;SDS011;49121;38.932;-9.018;2022-10-16T16:07:22;3.00;;;0.93;;
63032;SDS011;49121;38.932;-9.018;2022-10-16T16:09:23;4.28;;;1.10;;
63032;SDS011;49121;38.932;-9.018;2022-10-16T16:11:23;3.50;;;1.00;;
63032;SDS011;49121;38.932;-9.018;2022-10-16T16:13:24;4.43;;;0.95;;
63032;SDS011;49121;38.932;-9.018;2022-10-16T16:15:25;1.65;;;1.08;;
63032;SDS011;49121;38.932;-9.018;2022-10-16T16:17:25;3.10;;;1.08;;
63032;SDS011;49121;38.932;-9.018;2022-10-16T16:19:26;2.83;;;1.17;;
63032;SDS011;49121;38.932;-9.018;2022-10-16T16:21:27;3.25;;;1.27;;
63032;SDS011;49121;38.932;-9.018;2022-10-16T16:23:27;2.72;;;1.30;;
63032;SDS011;49121;38.932;-9.018;2022-10-16T16:25:28;4.25;;;0.93;;
63032;SDS011;49121;38.932;-9.018;2022-10-16T16:27:29;3.08;;;1.33;;
63032;SDS011;49121;38.932;-9.018;2022-10-16T16:35:08;6.80;;;1.30;;
63032;SDS011;49121;38.932;-9.018;2022-10-16T16:37:09;7.78;;;1.25;;
63032;SDS011;49121;38.932;-9.018;2022-10-16T16:39:10;2.45;;;1.35;;
63032;SDS011;49121;38.932;-9.018;2022-10-16T16:41:14;3.95;;;1.55;;
63032;SDS011;49121;38.932;-9.018;2022-10-16T16:43:16;3.90;;;1.60;;
63032;SDS011;49121;38.932;-9.018;2022-10-16T16:45:26;2.85;;;1.17;;
63032;SDS011;49121;38.932;-9.018;2022-10-16T16:47:27;2.47;;;1.30;;
63032;SDS011;49121;38.932;-9.018;2022-10-16T16:49:28;4.20;;;1.40;;
63032;SDS011;49121;38.932;-9.018;2022-10-16T16:51:28;2.83;;;1.98;;
63032;SDS011;49121;38.932;-9.018;2022-10-16T16:53:29;4.30;;;1.50;;
63032;SDS011;49121;38.932;-9.018;2022-10-16T16:55:39;2.17;;;1.08;;
63032;SDS011;49121;38.932;-9.018;2022-10-16T16:57:43;4.38;;;1.50;;
63032;SDS011;49121;38.932;-9.018;2022-10-16T16:59:44;2.00;;;1.30;;
63032;SDS011;49121;38.932;-9.018;2022-10-16T17:01:45;6.13;;;1.70;;
63032;SDS011;49121;38.932;-9.018;2022-10-16T17:03:47;4.00;;;1.42;;
63032;SDS011;49121;38.932;-9.018;2022-10-16T17:08:29;2.92;;;1.60;;
63032;SDS011;49121;38.932;-9.018;2022-10-16T17:10:33;3.33;;;1.48;;
63032;SDS011;49121;38.932;-9.018;2022-10-16T17:12:34;3.20;;;1.40;;
63032;SDS011;49121;38.932;-9.018;2022-10-16T17:14:34;4.13;;;1.75;;
63032;SDS011;49121;38.932;-9.018;2022-10-16T17:16:36;2.85;;;1.50;;